This is the latest recevied weather packets stored in our database for station/object IZ1BLA-10. If no packets are shown the sender has not sent any weather packets the latest 10 day(s).
| Time | Temp. | Humidity | Pressure | Rain* | Wind** | Luminosity | Snow |
|---|---|---|---|---|---|---|---|
| 1777958355 | 10.56° C | 77% | 1013.7 hPa | - | - | - | - |
| 1777957755 | 11.11° C | 77% | 1013.6 hPa | - | - | - | - |
| 1777957154 | 10.56° C | 78% | 1013.7 hPa | - | - | - | - |
| 1777956554 | 11.67° C | 74% | 1013.6 hPa | - | - | - | - |
| 1777955954 | 11.67° C | 76% | 1013.5 hPa | - | - | - | - |
| 1777955354 | 11.11° C | 77% | 1013.7 hPa | - | - | - | - |
| 1777954755 | 10° C | 83% | 1014 hPa | - | - | - | - |
| 1777954155 | 11.11° C | 83% | 1013.9 hPa | - | - | - | - |
| 1777953554 | 8.89° C | 94% | 1014.8 hPa | - | - | - | - |
| 1777952955 | 9.44° C | 97% | 1014.8 hPa | - | - | - | - |
| 1777952354 | 10.56° C | 95% | 1014.4 hPa | - | - | - | - |
| 1777951755 | 11.11° C | 94% | 1014.2 hPa | - | - | - | - |
| 1777951155 | 12.22° C | 83% | 1013.9 hPa | - | - | - | - |
| 1777950554 | 12.22° C | 92% | 1013.9 hPa | - | - | - | - |
| 1777949954 | 10.56° C | 10% | - | - | - | - | - |
| 1777949355 | 10.56° C | 10% | - | - | - | - | - |
| 1777948755 | 11.11° C | 95% | 1015.1 hPa | - | - | - | - |
| 1777948154 | 12.22° C | 89% | 1014.9 hPa | - | - | - | - |
| 1777947555 | 11.11° C | 94% | 1015.1 hPa | - | - | - | - |
| 1777946954 | 11.67° C | 92% | 1015 hPa | - | - | - | - |
| 1777946354 | 10.56° C | 95% | 1015.3 hPa | - | - | - | - |
| 1777945754 | 12.22° C | 90% | 1014.9 hPa | - | - | - | - |
| 1777945154 | 10.56° C | 98% | 1015.3 hPa | - | - | - | - |
| 1777944554 | 11.11° C | 93% | 1015.2 hPa | - | - | - | - |
| 1777943954 | 11.67° C | 96% | 1015 hPa | - | - | - | - |
* Rain since midnight (hover to see other rain measurements)
** Current wind speed in m/s (hover to see current wind gust speed)